sensor_id;sensor_type;location;lat;lon;timestamp;pressure;altitude;pressure_sealevel;temperature;humidity
4528;BME280;62320;51.520;6.818;2024-03-17T00:01:30;101949.56;;;6.31;100.00
4528;BME280;62320;51.520;6.818;2024-03-17T00:11:31;101941.34;;;6.41;100.00
4528;BME280;62320;51.520;6.818;2024-03-17T00:21:31;101928.41;;;6.38;100.00
4528;BME280;62320;51.520;6.818;2024-03-17T00:31:32;101927.88;;;6.23;100.00
4528;BME280;62320;51.520;6.818;2024-03-17T00:41:32;101899.50;;;6.20;100.00
4528;BME280;62320;51.520;6.818;2024-03-17T00:51:33;101897.63;;;6.16;100.00
4528;BME280;62320;51.520;6.818;2024-03-17T01:01:33;101888.72;;;6.07;100.00
4528;BME280;62320;51.520;6.818;2024-03-17T01:11:34;101891.03;;;5.99;100.00
4528;BME280;62320;51.520;6.818;2024-03-17T01:21:34;101884.84;;;5.94;100.00
4528;BME280;62320;51.520;6.818;2024-03-17T01:31:35;101879.38;;;5.63;100.00
4528;BME280;62320;51.520;6.818;2024-03-17T01:41:35;101868.53;;;5.48;100.00
4528;BME280;62320;51.520;6.818;2024-03-17T01:51:37;101860.97;;;5.29;100.00
4528;BME280;62320;51.520;6.818;2024-03-17T02:01:37;101859.94;;;5.25;100.00
4528;BME280;62320;51.520;6.818;2024-03-17T02:11:38;101849.66;;;5.24;100.00
4528;BME280;62320;51.520;6.818;2024-03-17T02:21:38;101848.66;;;5.20;100.00
4528;BME280;62320;51.520;6.818;2024-03-17T02:31:39;101840.13;;;4.99;100.00
4528;BME280;62320;51.520;6.818;2024-03-17T02:41:43;101832.31;;;4.96;100.00
4528;BME280;62320;51.520;6.818;2024-03-17T02:51:44;101815.28;;;4.76;100.00
4528;BME280;62320;51.520;6.818;2024-03-17T03:01:44;101813.13;;;4.66;100.00
4528;BME280;62320;51.520;6.818;2024-03-17T03:11:45;101827.69;;;4.46;100.00
4528;BME280;62320;51.520;6.818;2024-03-17T03:21:47;101823.31;;;4.44;100.00
4528;BME280;62320;51.520;6.818;2024-03-17T03:31:48;101822.25;;;4.39;100.00
4528;BME280;62320;51.520;6.818;2024-03-17T03:41:48;101831.31;;;4.30;100.00
4528;BME280;62320;51.520;6.818;2024-03-17T03:51:49;101825.88;;;4.44;100.00
4528;BME280;62320;51.520;6.818;2024-03-17T04:01:49;101813.66;;;4.57;100.00
4528;BME280;62320;51.520;6.818;2024-03-17T04:11:50;101819.41;;;4.52;100.00
4528;BME280;62320;51.520;6.818;2024-03-17T04:21:50;101820.41;;;4.55;100.00
4528;BME280;62320;51.520;6.818;2024-03-17T04:31:51;101800.16;;;4.61;100.00
4528;BME280;62320;51.520;6.818;2024-03-17T04:41:52;101798.59;;;4.65;100.00
4528;BME280;62320;51.520;6.818;2024-03-17T04:51:52;101780.53;;;4.62;100.00
4528;BME280;62320;51.520;6.818;2024-03-17T05:01:53;101780.34;;;4.57;100.00
4528;BME280;62320;51.520;6.818;2024-03-17T05:11:54;101770.06;;;4.56;100.00
4528;BME280;62320;51.520;6.818;2024-03-17T05:21:54;101766.84;;;4.61;100.00
4528;BME280;62320;51.520;6.818;2024-03-17T05:31:55;101762.25;;;4.53;100.00
4528;BME280;62320;51.520;6.818;2024-03-17T05:41:56;101760.56;;;4.53;100.00
4528;BME280;62320;51.520;6.818;2024-03-17T05:51:56;101770.75;;;4.52;100.00
4528;BME280;62320;51.520;6.818;2024-03-17T06:01:57;101767.94;;;4.46;100.00
4528;BME280;62320;51.520;6.818;2024-03-17T06:11:58;101765.50;;;4.49;100.00
4528;BME280;62320;51.520;6.818;2024-03-17T06:21:58;101758.69;;;4.70;100.00
4528;BME280;62320;51.520;6.818;2024-03-17T06:31:59;101759.03;;;4.79;100.00
4528;BME280;62320;51.520;6.818;2024-03-17T06:42:00;101760.06;;;5.28;100.00
4528;BME280;62320;51.520;6.818;2024-03-17T06:52:00;101729.84;;;5.67;100.00
4528;BME280;62320;51.520;6.818;2024-03-17T07:02:01;101729.31;;;6.24;100.00
4528;BME280;62320;51.520;6.818;2024-03-17T07:12:02;101736.34;;;6.85;100.00
4528;BME280;62320;51.520;6.818;2024-03-17T07:22:03;101744.38;;;7.24;100.00
4528;BME280;62320;51.520;6.818;2024-03-17T07:32:06;101749.88;;;7.65;100.00
4528;BME280;62320;51.520;6.818;2024-03-17T07:42:07;101734.06;;;7.83;100.00
4528;BME280;62320;51.520;6.818;2024-03-17T07:52:07;101746.72;;;8.08;100.00
4528;BME280;62320;51.520;6.818;2024-03-17T08:02:08;101758.41;;;8.27;100.00
4528;BME280;62320;51.520;6.818;2024-03-17T08:12:08;101757.78;;;8.37;100.00
4528;BME280;62320;51.520;6.818;2024-03-17T08:22:09;101764.88;;;8.45;100.00
4528;BME280;62320;51.520;6.818;2024-03-17T08:32:09;101749.81;;;8.62;100.00
4528;BME280;62320;51.520;6.818;2024-03-17T08:42:10;101756.31;;;8.82;100.00
4528;BME280;62320;51.520;6.818;2024-03-17T08:52:10;101755.91;;;9.03;100.00
4528;BME280;62320;51.520;6.818;2024-03-17T09:02:13;101740.22;;;9.32;100.00
4528;BME280;62320;51.520;6.818;2024-03-17T09:12:15;101727.78;;;9.57;100.00
4528;BME280;62320;51.520;6.818;2024-03-17T09:22:16;101724.69;;;9.74;100.00
4528;BME280;62320;51.520;6.818;2024-03-17T09:32:17;101714.75;;;9.95;100.00
4528;BME280;62320;51.520;6.818;2024-03-17T09:42:18;101702.84;;;10.03;100.00
4528;BME280;62320;51.520;6.818;2024-03-17T09:52:21;101720.53;;;10.30;100.00
4528;BME280;62320;51.520;6.818;2024-03-17T10:02:25;101725.25;;;10.55;100.00
4528;BME280;62320;51.520;6.818;2024-03-17T10:12:29;101721.44;;;10.91;100.00
4528;BME280;62320;51.520;6.818;2024-03-17T10:22:29;101714.81;;;11.11;100.00
4528;BME280;62320;51.520;6.818;2024-03-17T10:32:30;101728.97;;;11.37;100.00
4528;BME280;62320;51.520;6.818;2024-03-17T10:42:31;101716.44;;;11.70;100.00
4528;BME280;62320;51.520;6.818;2024-03-17T10:52:33;101706.19;;;11.82;100.00
4528;BME280;62320;51.520;6.818;2024-03-17T11:02:35;101709.00;;;12.05;100.00
4528;BME280;62320;51.520;6.818;2024-03-17T11:12:44;101710.00;;;12.21;100.00
4528;BME280;62320;51.520;6.818;2024-03-17T11:22:45;101699.94;;;12.60;100.00
4528;BME280;62320;51.520;6.818;2024-03-17T11:32:49;101694.94;;;12.98;100.00
4528;BME280;62320;51.520;6.818;2024-03-17T11:43:03;101686.28;;;12.89;100.00
4528;BME280;62320;51.520;6.818;2024-03-17T11:53:08;101684.78;;;13.37;100.00
4528;BME280;62320;51.520;6.818;2024-03-17T12:03:11;101676.97;;;13.34;100.00
4528;BME280;62320;51.520;6.818;2024-03-17T12:13:14;101661.47;;;13.75;100.00
4528;BME280;62320;51.520;6.818;2024-03-17T12:23:15;101650.22;;;13.88;100.00
4528;BME280;62320;51.520;6.818;2024-03-17T12:33:22;101631.16;;;13.87;100.00
4528;BME280;62320;51.520;6.818;2024-03-17T12:43:22;101633.75;;;14.07;100.00
4528;BME280;62320;51.520;6.818;2024-03-17T12:53:23;101606.88;;;14.09;100.00
4528;BME280;62320;51.520;6.818;2024-03-17T13:03:25;101597.31;;;14.08;100.00
4528;BME280;62320;51.520;6.818;2024-03-17T13:13:26;101573.91;;;14.28;100.00
4528;BME280;62320;51.520;6.818;2024-03-17T13:23:26;101561.72;;;14.45;100.00
4528;BME280;62320;51.520;6.818;2024-03-17T13:33:30;101554.78;;;14.46;100.00
4528;BME280;62320;51.520;6.818;2024-03-17T13:43:30;101525.31;;;14.36;100.00
4528;BME280;62320;51.520;6.818;2024-03-17T13:53:31;101515.78;;;14.40;100.00
4528;BME280;62320;51.520;6.818;2024-03-17T14:03:31;101494.09;;;14.47;100.00
4528;BME280;62320;51.520;6.818;2024-03-17T14:13:33;101493.19;;;14.54;100.00
4528;BME280;62320;51.520;6.818;2024-03-17T14:23:33;101501.00;;;14.51;100.00
4528;BME280;62320;51.520;6.818;2024-03-17T14:33:34;101494.91;;;14.53;100.00
4528;BME280;62320;51.520;6.818;2024-03-17T14:43:35;101485.41;;;14.49;100.00
4528;BME280;62320;51.520;6.818;2024-03-17T14:53:38;101475.88;;;14.42;99.56
4528;BME280;62320;51.520;6.818;2024-03-17T15:03:42;101457.69;;;14.39;100.00
4528;BME280;62320;51.520;6.818;2024-03-17T15:13:44;101439.44;;;14.41;100.00
4528;BME280;62320;51.520;6.818;2024-03-17T15:23:45;101431.63;;;14.41;100.00
4528;BME280;62320;51.520;6.818;2024-03-17T15:33:45;101422.06;;;14.46;100.00
4528;BME280;62320;51.520;6.818;2024-03-17T15:43:46;101409.00;;;14.58;100.00
4528;BME280;62320;51.520;6.818;2024-03-17T15:53:47;101396.03;;;14.53;100.00
4528;BME280;62320;51.520;6.818;2024-03-17T16:03:51;101388.16;;;14.59;87.13
4528;BME280;62320;51.520;6.818;2024-03-17T16:13:55;101385.59;;;14.52;90.18
4528;BME280;62320;51.520;6.818;2024-03-17T16:34:01;101377.84;;;14.43;98.69
4528;BME280;62320;51.520;6.818;2024-03-17T16:44:05;101380.53;;;14.32;91.84
4528;BME280;62320;51.520;6.818;2024-03-17T16:54:09;101382.28;;;14.21;93.51
4528;BME280;62320;51.520;6.818;2024-03-17T17:04:10;101381.47;;;14.08;95.42
4528;BME280;62320;51.520;6.818;2024-03-17T17:14:11;101378.09;;;13.94;90.46
4528;BME280;62320;51.520;6.818;2024-03-17T17:24:16;101383.31;;;13.79;96.28
4528;BME280;62320;51.520;6.818;2024-03-17T17:34:24;101372.09;;;13.71;100.00
4528;BME280;62320;51.520;6.818;2024-03-17T17:44:25;101370.38;;;13.56;100.00
4528;BME280;62320;51.520;6.818;2024-03-17T17:54:27;101364.38;;;13.47;100.00
4528;BME280;62320;51.520;6.818;2024-03-17T18:04:28;101370.44;;;13.38;100.00
4528;BME280;62320;51.520;6.818;2024-03-17T18:14:29;101360.06;;;13.35;100.00
4528;BME280;62320;51.520;6.818;2024-03-17T18:24:29;101358.31;;;13.27;100.00
4528;BME280;62320;51.520;6.818;2024-03-17T18:34:30;101367.00;;;13.15;100.00
4528;BME280;62320;51.520;6.818;2024-03-17T18:44:30;101360.09;;;13.07;100.00
4528;BME280;62320;51.520;6.818;2024-03-17T18:54:31;101346.19;;;13.02;100.00
4528;BME280;62320;51.520;6.818;2024-03-17T19:04:31;101341.91;;;12.95;100.00
4528;BME280;62320;51.520;6.818;2024-03-17T19:14:32;101339.31;;;12.92;100.00
4528;BME280;62320;51.520;6.818;2024-03-17T19:24:33;101323.72;;;12.87;100.00
4528;BME280;62320;51.520;6.818;2024-03-17T19:34:34;101321.16;;;12.76;100.00
4528;BME280;62320;51.520;6.818;2024-03-17T19:44:34;101335.84;;;12.73;100.00
4528;BME280;62320;51.520;6.818;2024-03-17T19:54:35;101332.38;;;12.72;100.00
4528;BME280;62320;51.520;6.818;2024-03-17T20:04:35;101325.44;;;12.70;100.00
4528;BME280;62320;51.520;6.818;2024-03-17T20:14:36;101313.34;;;12.70;100.00
4528;BME280;62320;51.520;6.818;2024-03-17T20:24:38;101305.59;;;12.67;100.00
4528;BME280;62320;51.520;6.818;2024-03-17T20:34:41;101307.31;;;12.62;100.00
4528;BME280;62320;51.520;6.818;2024-03-17T20:44:42;101288.28;;;12.56;100.00
4528;BME280;62320;51.520;6.818;2024-03-17T20:54:42;101282.22;;;12.57;100.00
4528;BME280;62320;51.520;6.818;2024-03-17T21:04:43;101277.91;;;12.47;100.00
4528;BME280;62320;51.520;6.818;2024-03-17T21:14:43;101279.63;;;12.51;100.00
4528;BME280;62320;51.520;6.818;2024-03-17T21:24:44;101272.72;;;12.42;100.00
4528;BME280;62320;51.520;6.818;2024-03-17T21:34:45;101272.72;;;12.33;100.00
4528;BME280;62320;51.520;6.818;2024-03-17T21:44:49;101268.38;;;12.28;100.00
4528;BME280;62320;51.520;6.818;2024-03-17T21:54:53;101251.06;;;12.16;100.00
4528;BME280;62320;51.520;6.818;2024-03-17T22:04:54;101246.75;;;12.06;100.00
4528;BME280;62320;51.520;6.818;2024-03-17T22:14:55;101239.78;;;11.93;100.00
4528;BME280;62320;51.520;6.818;2024-03-17T22:24:55;101232.00;;;11.93;100.00
4528;BME280;62320;51.520;6.818;2024-03-17T22:34:56;101233.75;;;11.92;100.00
4528;BME280;62320;51.520;6.818;2024-03-17T22:44:56;101222.50;;;11.87;100.00
4528;BME280;62320;51.520;6.818;2024-03-17T22:54:57;101213.88;;;11.90;100.00
4528;BME280;62320;51.520;6.818;2024-03-17T23:04:57;101218.22;;;11.88;100.00
4528;BME280;62320;51.520;6.818;2024-03-17T23:14:59;101214.72;;;11.84;100.00
4528;BME280;62320;51.520;6.818;2024-03-17T23:24:59;101200.91;;;11.78;100.00
4528;BME280;62320;51.520;6.818;2024-03-17T23:35:00;101199.09;;;11.62;100.00
4528;BME280;62320;51.520;6.818;2024-03-17T23:45:00;101193.91;;;11.56;100.00
4528;BME280;62320;51.520;6.818;2024-03-17T23:55:02;101185.22;;;11.31;100.00
